createdAt,value
2023-01-09T00:01:56.421Z,25.35
2023-01-09T00:04:29.072Z,25.40
2023-01-09T00:07:03.163Z,27.40
2023-01-09T00:09:29.880Z,27.33
2023-01-09T00:11:56.992Z,26.70
2023-01-09T00:14:31.115Z,28.20
2023-01-09T00:17:04.246Z,25.63
2023-01-09T00:19:30.866Z,24.80
2023-01-09T00:22:04.143Z,28.52
2023-01-09T00:24:30.782Z,25.77
2023-01-09T00:27:04.170Z,26.40
2023-01-09T00:29:31.110Z,27.00
2023-01-09T00:31:57.928Z,35.67
2023-01-09T00:34:32.126Z,27.35
2023-01-09T00:36:58.717Z,30.15
2023-01-09T00:39:32.132Z,25.85
2023-01-09T00:41:58.753Z,29.50
2023-01-09T00:44:48.117Z,29.60
2023-01-09T00:47:27.093Z,29.03
2023-01-09T00:50:02.097Z,29.27
2023-01-09T00:52:44.173Z,27.05
2023-01-09T00:55:11.504Z,28.65
2023-01-09T00:57:45.135Z,26.75
2023-01-09T01:00:12.394Z,26.48
2023-01-09T01:02:39.032Z,27.83
2023-01-09T01:05:32.175Z,28.45
2023-01-09T01:08:05.146Z,28.90
2023-01-09T01:10:31.797Z,26.38
2023-01-09T01:13:05.163Z,28.35
2023-01-09T01:15:38.083Z,27.75
2023-01-09T01:18:11.150Z,29.92
2023-01-09T01:20:40.831Z,27.88
2023-01-09T01:23:07.829Z,27.85
2023-01-09T01:25:44.104Z,25.50
2023-01-09T01:28:17.132Z,29.52
2023-01-09T01:30:50.164Z,29.75
2023-01-09T01:33:23.141Z,27.27
2023-01-09T01:36:03.072Z,31.23
2023-01-09T01:38:37.136Z,28.25
2023-01-09T01:41:04.787Z,28.27
2023-01-09T01:44:02.190Z,29.23
2023-01-09T01:46:37.222Z,30.00
2023-01-09T01:49:07.299Z,29.48
2023-01-09T01:51:58.140Z,33.10
2023-01-09T01:54:28.659Z,28.17
2023-01-09T01:57:05.112Z,34.33
2023-01-09T02:00:02.143Z,32.75
2023-01-09T02:02:31.411Z,33.45
2023-01-09T02:05:00.103Z,33.92
2023-01-09T02:07:33.129Z,34.65
2023-01-09T02:10:07.149Z,37.08
2023-01-09T02:12:33.766Z,34.90
2023-01-09T02:15:13.075Z,31.88
2023-01-09T02:18:08.814Z,31.87
2023-01-09T02:20:59.093Z,33.05
2023-01-09T02:26:10.229Z,34.20
2023-01-09T02:29:02.130Z,32.55
2023-01-09T02:31:40.726Z,33.03
2023-01-09T02:34:46.095Z,31.65
2023-01-09T02:37:32.255Z,32.78
2023-01-09T02:40:38.078Z,31.92
2023-01-09T02:43:13.186Z,34.70
2023-01-09T02:45:39.949Z,36.38
2023-01-09T02:48:08.199Z,33.25
2023-01-09T02:50:54.151Z,32.63
2023-01-09T02:53:50.416Z,33.45
2023-01-09T02:56:33.071Z,37.33
2023-01-09T02:59:41.077Z,34.67
2023-01-09T03:02:29.568Z,34.30
2023-01-09T03:05:13.137Z,37.17
2023-01-09T03:07:52.170Z,34.25
2023-01-09T03:10:35.097Z,36.75
2023-01-09T03:13:03.199Z,34.70
2023-01-09T03:15:41.164Z,35.63
2023-01-09T03:18:10.520Z,34.20
2023-01-09T03:20:45.138Z,33.30
2023-01-09T03:23:25.158Z,36.47
2023-01-09T03:25:58.191Z,35.47
2023-01-09T03:28:31.067Z,35.67
2023-01-09T03:31:04.118Z,34.75
2023-01-09T03:33:30.722Z,35.00
2023-01-09T03:36:04.072Z,37.45
2023-01-09T03:38:30.770Z,30.25
2023-01-09T03:41:04.133Z,35.30
2023-01-09T03:43:31.095Z,36.53
2023-01-09T03:45:57.807Z,36.03
2023-01-09T03:48:31.163Z,36.33
2023-01-09T03:51:11.164Z,33.78
2023-01-09T03:53:44.646Z,37.08
2023-01-09T03:56:18.149Z,35.95
2023-01-09T03:58:44.785Z,35.33
2023-01-09T04:01:21.244Z,37.47
2023-01-09T04:03:48.006Z,35.00
2023-01-09T04:06:14.666Z,36.33
2023-01-09T04:08:48.131Z,31.63
2023-01-09T04:11:17.533Z,34.20
2023-01-09T04:13:45.108Z,35.58
2023-01-09T04:16:18.131Z,32.80
2023-01-09T04:18:44.745Z,31.10
2023-01-09T04:21:18.154Z,34.30
2023-01-09T04:23:45.420Z,31.20
2023-01-09T04:26:12.180Z,33.55
2023-01-09T04:28:45.173Z,30.65
2023-01-09T04:31:11.895Z,31.90
2023-01-09T04:33:38.570Z,32.53
2023-01-09T04:36:12.091Z,29.88
2023-01-09T04:38:45.128Z,29.90
2023-01-09T04:41:31.742Z,32.83
2023-01-09T04:44:05.127Z,28.83
2023-01-09T04:46:38.195Z,26.63
2023-01-09T04:49:04.942Z,28.90
2023-01-09T04:51:45.131Z,28.55
2023-01-09T04:56:38.777Z,26.92
2023-01-09T04:59:13.054Z,30.55
2023-01-09T05:01:39.981Z,29.60
2023-01-09T05:04:13.229Z,27.20
2023-01-09T05:06:46.101Z,28.75
2023-01-09T05:09:19.175Z,30.73
2023-01-09T05:11:52.089Z,28.67
2023-01-09T05:14:25.155Z,24.10
2023-01-09T05:16:58.083Z,28.40
2023-01-09T05:19:31.186Z,27.42
2023-01-09T05:21:57.846Z,26.88
2023-01-09T05:24:24.454Z,24.30
2023-01-09T05:26:58.147Z,26.13
2023-01-09T05:29:25.107Z,25.55
2023-01-09T05:31:52.790Z,27.50
2023-01-09T05:34:26.124Z,25.38
2023-01-09T05:36:52.813Z,27.70
2023-01-09T05:39:26.152Z,26.02
2023-01-09T05:41:59.062Z,27.65
2023-01-09T05:44:32.109Z,27.77
2023-01-09T05:47:05.073Z,29.38
2023-01-09T05:49:31.682Z,25.73
2023-01-09T05:52:11.074Z,30.98
2023-01-09T05:54:51.134Z,28.02
2023-01-09T05:57:24.140Z,32.50
2023-01-09T05:59:50.753Z,26.92
2023-01-09T06:02:17.477Z,28.85
2023-01-09T06:04:51.175Z,29.73
2023-01-09T06:07:21.025Z,30.08
2023-01-09T06:09:48.780Z,31.10
2023-01-09T06:12:22.183Z,27.05
2023-01-09T06:14:48.820Z,26.15
2023-01-09T06:17:15.477Z,27.98
2023-01-09T06:19:49.068Z,28.08
2023-01-09T06:22:15.664Z,31.40
2023-01-09T06:24:49.287Z,30.23
2023-01-09T06:27:15.886Z,31.20
2023-01-09T06:29:49.066Z,30.20
2023-01-09T06:32:15.783Z,33.05
2023-01-09T06:34:49.067Z,28.52
2023-01-09T06:37:15.666Z,32.60
2023-01-09T06:39:49.083Z,30.23
2023-01-09T06:42:15.744Z,30.08
2023-01-09T06:44:49.165Z,31.52
2023-01-09T06:47:15.817Z,34.17
2023-01-09T06:49:49.056Z,32.47
2023-01-09T06:52:22.488Z,29.38
2023-01-09T06:54:56.117Z,32.20
2023-01-09T06:57:22.735Z,33.20
2023-01-09T06:59:49.357Z,29.98
2023-01-09T07:02:26.158Z,29.73
2023-01-09T07:04:52.825Z,33.75
2023-01-09T07:07:20.389Z,34.67
2023-01-09T07:09:53.159Z,36.05
2023-01-09T07:12:19.849Z,32.53
2023-01-09T07:14:46.494Z,31.33
2023-01-09T07:17:20.139Z,32.65
2023-01-09T07:19:46.756Z,32.55
2023-01-09T07:22:13.418Z,30.20
2023-01-09T07:24:47.195Z,31.23
2023-01-09T07:27:13.807Z,32.35
2023-01-09T07:29:40.456Z,33.72
2023-01-09T07:32:14.189Z,31.05
2023-01-09T07:34:41.034Z,33.45
2023-01-09T07:37:07.649Z,32.33
2023-01-09T07:39:41.140Z,38.30
2023-01-09T07:42:07.780Z,35.92
2023-01-09T07:44:34.414Z,35.47
2023-01-09T07:47:08.129Z,40.95
2023-01-09T07:49:34.781Z,32.63
2023-01-09T07:52:15.121Z,38.40
2023-01-09T07:54:48.839Z,37.33
2023-01-09T07:57:22.171Z,34.30
2023-01-09T07:59:48.836Z,35.00
2023-01-09T08:02:22.273Z,36.10
2023-01-09T08:04:48.995Z,31.92
2023-01-09T08:07:15.620Z,36.08
2023-01-09T08:09:49.183Z,33.70
2023-01-09T08:12:15.886Z,35.88
2023-01-09T08:14:42.557Z,32.58
2023-01-09T08:17:17.173Z,33.78
2023-01-09T08:19:44.357Z,36.88
2023-01-09T08:22:11.729Z,35.50
2023-01-09T08:24:45.139Z,31.48
2023-01-09T08:27:11.795Z,37.47
2023-01-09T08:29:44.553Z,34.50
2023-01-09T08:32:18.054Z,29.42
2023-01-09T08:34:44.740Z,38.50
2023-01-09T08:37:18.135Z,31.40
2023-01-09T08:39:44.821Z,31.20
2023-01-09T08:42:37.123Z,34.25
2023-01-09T08:45:22.504Z,33.60
2023-01-09T08:47:56.153Z,33.58
2023-01-09T08:50:29.120Z,33.22
2023-01-09T08:53:09.095Z,31.63
2023-01-09T08:55:35.775Z,37.88
2023-01-09T08:58:15.123Z,34.80
2023-01-09T09:00:42.156Z,34.10
2023-01-09T09:03:16.070Z,33.20
2023-01-09T09:05:49.127Z,35.08
2023-01-09T09:08:23.085Z,32.95
2023-01-09T09:10:49.681Z,34.58
2023-01-09T09:13:23.202Z,35.45
2023-01-09T09:15:56.193Z,34.10
2023-01-09T09:18:22.859Z,35.67
2023-01-09T09:20:56.163Z,33.42
2023-01-09T09:23:23.606Z,30.33
2023-01-09T09:25:50.219Z,32.20
2023-01-09T09:28:23.226Z,35.35
2023-01-09T09:30:49.880Z,29.67
2023-01-09T09:33:16.475Z,29.60
2023-01-09T09:35:50.059Z,31.75
2023-01-09T09:38:16.799Z,34.75
2023-01-09T09:41:03.167Z,30.65
2023-01-09T09:44:27.781Z,30.17
2023-01-09T09:47:21.156Z,28.50
2023-01-09T09:50:25.170Z,30.17
2023-01-09T09:53:27.118Z,27.98
2023-01-09T09:56:01.105Z,27.75
2023-01-09T09:58:39.983Z,27.77
2023-01-09T10:01:15.069Z,28.38
2023-01-09T10:03:50.249Z,27.95
2023-01-09T10:06:35.092Z,27.58
2023-01-09T10:09:18.872Z,30.67
2023-01-09T10:12:10.165Z,26.25
2023-01-09T10:14:36.764Z,30.27
2023-01-09T10:17:19.069Z,30.38
2023-01-09T10:20:11.701Z,27.08
2023-01-09T10:22:55.095Z,24.60
2023-01-09T10:25:44.956Z,26.35
2023-01-09T10:28:24.121Z,27.92
2023-01-09T10:31:05.078Z,26.35
2023-01-09T10:34:03.086Z,27.50
2023-01-09T10:36:42.585Z,29.25
2023-01-09T10:39:31.137Z,29.48
2023-01-09T10:42:12.324Z,28.48
2023-01-09T10:44:49.213Z,26.35
2023-01-09T10:47:28.124Z,28.00
2023-01-09T10:49:55.857Z,26.67
2023-01-09T10:52:47.190Z,27.63
2023-01-09T10:55:45.040Z,26.42
2023-01-09T10:58:20.104Z,26.52
2023-01-09T11:00:56.067Z,26.73
2023-01-09T11:03:30.312Z,30.35
2023-01-09T11:06:06.083Z,27.67
2023-01-09T11:08:42.700Z,26.17
2023-01-09T11:11:17.212Z,22.73
2023-01-09T11:13:48.472Z,22.67
2023-01-09T11:16:28.107Z,25.85
2023-01-09T11:19:00.970Z,21.00
2023-01-09T11:21:44.198Z,22.92
2023-01-09T11:24:23.781Z,21.67
2023-01-09T11:27:00.149Z,22.33
2023-01-09T11:29:26.793Z,20.63
2023-01-09T11:32:05.086Z,20.65
2023-01-09T11:34:40.056Z,18.73
2023-01-09T11:37:10.275Z,18.90
2023-01-09T11:42:42.646Z,17.55
2023-01-09T11:45:30.075Z,18.23
2023-01-09T11:47:56.858Z,16.15
2023-01-09T11:50:33.155Z,17.52
2023-01-09T11:53:16.136Z,14.60
2023-01-09T11:55:51.069Z,21.65
2023-01-09T11:58:21.668Z,13.55
2023-01-09T12:01:12.125Z,19.08
2023-01-09T12:03:50.088Z,18.25
2023-01-09T12:06:47.143Z,18.60
2023-01-09T12:09:38.506Z,13.00
2023-01-09T12:12:36.086Z,12.30
2023-01-09T12:15:29.064Z,10.40
2023-01-09T12:18:33.098Z,10.25
2023-01-09T12:21:12.084Z,12.52
2023-01-09T12:24:12.198Z,11.32
2023-01-09T12:27:12.162Z,8.40
2023-01-09T12:30:11.151Z,9.38
2023-01-09T12:33:28.098Z,9.45
2023-01-09T12:36:21.147Z,9.25
2023-01-09T12:39:29.095Z,10.90
2023-01-09T12:42:17.503Z,9.38
2023-01-09T12:45:06.218Z,7.55
2023-01-09T12:47:45.854Z,8.55
2023-01-09T12:50:34.125Z,8.38
2023-01-09T12:53:31.072Z,8.20
2023-01-09T12:56:16.199Z,10.95
2023-01-09T12:58:51.974Z,25.92
2023-01-09T13:01:34.625Z,7.72
2023-01-09T13:04:33.073Z,6.30
2023-01-09T13:07:11.238Z,9.02
2023-01-09T13:09:51.509Z,5.50
2023-01-09T13:15:02.570Z,8.55
2023-01-09T13:17:53.119Z,7.95
2023-01-09T13:20:38.104Z,8.40
2023-01-09T13:23:06.625Z,10.02
2023-01-09T13:25:48.116Z,12.05
2023-01-09T13:28:20.989Z,7.03
2023-01-09T13:31:41.997Z,10.32
2023-01-09T13:34:22.986Z,4.65
2023-01-09T13:36:59.025Z,9.43
2023-01-09T13:39:35.009Z,6.97
2023-01-09T13:42:31.893Z,3.42
2023-01-09T13:45:36.976Z,6.30
2023-01-09T13:48:17.459Z,6.97
2023-01-09T13:50:52.015Z,5.80
2023-01-09T13:53:24.991Z,8.10
2023-01-09T13:55:57.623Z,9.35
2023-01-09T13:58:57.979Z,4.68
2023-01-09T14:01:24.657Z,4.60
2023-01-09T14:04:16.901Z,5.32
2023-01-09T14:07:25.952Z,7.50
2023-01-09T14:09:59.526Z,6.63
2023-01-09T14:12:35.078Z,15.45
2023-01-09T14:15:10.945Z,4.68
2023-01-09T14:17:38.689Z,5.82
2023-01-09T14:20:09.055Z,6.97
2023-01-09T14:22:55.859Z,6.60
2023-01-09T14:25:26.014Z,5.25
2023-01-09T14:28:01.970Z,7.63
2023-01-09T14:30:49.897Z,7.65
2023-01-09T14:33:25.900Z,9.27
2023-01-09T14:36:03.424Z,8.32
2023-01-09T14:38:44.913Z,8.73
2023-01-09T14:41:51.716Z,5.75
2023-01-09T14:44:46.942Z,5.97
2023-01-09T14:47:37.244Z,5.53
2023-01-09T14:52:49.256Z,6.35
2023-01-09T14:55:50.917Z,6.93
2023-01-09T14:58:17.473Z,3.40
2023-01-09T15:01:19.046Z,9.10
2023-01-09T15:03:49.495Z,6.28
2023-01-09T15:06:29.971Z,5.28
2023-01-09T15:09:02.668Z,4.85
2023-01-09T15:11:36.979Z,6.45
2023-01-09T15:14:05.353Z,5.13
2023-01-09T15:16:32.717Z,7.00
2023-01-09T15:19:13.003Z,5.95
2023-01-09T15:21:45.950Z,8.35
2023-01-09T15:24:28.053Z,8.07
2023-01-09T15:27:01.131Z,6.35
2023-01-09T15:29:47.969Z,6.60
2023-01-09T15:32:26.889Z,5.97
2023-01-09T15:35:01.970Z,5.90
2023-01-09T15:37:39.132Z,4.28
2023-01-09T15:40:14.929Z,4.47
2023-01-09T15:43:02.987Z,9.20
2023-01-09T15:45:33.774Z,16.83
2023-01-09T15:48:24.883Z,14.48
2023-01-09T15:50:59.307Z,10.60
2023-01-09T15:53:34.989Z,14.82
2023-01-09T15:56:30.003Z,8.98
2023-01-09T15:58:58.183Z,11.80
2023-01-09T16:01:40.972Z,12.20
2023-01-09T16:04:13.852Z,7.95
2023-01-09T16:06:56.911Z,7.20
2023-01-09T16:09:37.912Z,7.85
2023-01-09T16:12:11.055Z,4.35
2023-01-09T16:14:45.989Z,9.77
2023-01-09T16:17:17.715Z,11.00
2023-01-09T16:19:54.988Z,7.72
2023-01-09T16:22:34.053Z,7.93
2023-01-09T16:25:09.934Z,5.05
2023-01-09T16:27:36.594Z,8.18
2023-01-09T16:30:39.957Z,6.82
2023-01-09T16:33:22.394Z,9.00
2023-01-09T16:35:56.897Z,7.43
2023-01-09T16:38:30.971Z,7.00
2023-01-09T16:41:31.797Z,9.57
2023-01-09T16:44:05.073Z,11.00
2023-01-09T16:46:34.288Z,8.10
2023-01-09T16:49:07.909Z,6.60
2023-01-09T16:51:34.589Z,7.53
2023-01-09T16:54:07.902Z,12.93
2023-01-09T16:56:36.723Z,10.48
2023-01-09T16:59:09.887Z,10.43
2023-01-09T17:01:36.588Z,8.32
2023-01-09T17:04:19.948Z,9.38
2023-01-09T17:06:48.319Z,8.10
2023-01-09T17:09:18.070Z,8.88
2023-01-09T17:11:51.942Z,10.13
2023-01-09T17:14:25.567Z,10.48
2023-01-09T17:16:59.004Z,11.10
2023-01-09T17:19:31.950Z,8.70
2023-01-09T17:21:58.780Z,7.72
2023-01-09T17:24:50.950Z,9.85
2023-01-09T17:27:48.720Z,8.95
2023-01-09T17:30:29.928Z,12.15
2023-01-09T17:33:04.852Z,10.52
2023-01-09T17:35:37.930Z,9.38
2023-01-09T17:38:04.536Z,8.30
2023-01-09T17:40:38.045Z,8.82
2023-01-09T17:43:10.893Z,8.43
2023-01-09T17:45:41.091Z,9.25
2023-01-09T17:48:25.013Z,10.85
2023-01-09T17:50:58.012Z,15.05
2023-01-09T17:53:32.053Z,11.38
2023-01-09T17:56:00.124Z,10.38
2023-01-09T17:58:36.960Z,9.82
2023-01-09T18:01:10.020Z,9.02
2023-01-09T18:03:42.967Z,11.80
2023-01-09T18:06:11.894Z,8.93
2023-01-09T18:08:46.008Z,9.13
2023-01-09T18:11:24.069Z,12.88
2023-01-09T18:13:54.015Z,11.27
2023-01-09T18:16:32.910Z,15.40
2023-01-09T18:19:07.959Z,13.98
2023-01-09T18:21:34.625Z,11.35
2023-01-09T18:24:07.899Z,14.38
2023-01-09T18:26:34.496Z,13.02
2023-01-09T18:29:07.951Z,11.48
2023-01-09T18:31:41.406Z,14.57
2023-01-09T18:34:16.024Z,10.27
2023-01-09T18:36:43.156Z,8.93
2023-01-09T18:39:11.502Z,12.65
2023-01-09T18:41:45.016Z,11.57
2023-01-09T18:44:11.613Z,13.18
2023-01-09T18:46:39.329Z,10.82
2023-01-09T18:49:12.881Z,11.05
2023-01-09T18:51:39.888Z,11.10
2023-01-09T18:54:16.000Z,9.07
2023-01-09T18:56:49.969Z,12.45
2023-01-09T18:59:16.561Z,8.80
2023-01-09T19:01:43.355Z,14.90
2023-01-09T19:04:17.129Z,6.65
2023-01-09T19:06:43.817Z,11.32
2023-01-09T19:09:17.907Z,9.80
2023-01-09T19:11:44.845Z,12.60
2023-01-09T19:14:18.901Z,9.07
2023-01-09T19:16:45.673Z,7.10
2023-01-09T19:19:19.017Z,7.65
2023-01-09T19:21:46.327Z,6.43
2023-01-09T19:24:21.182Z,7.57
2023-01-09T19:26:48.148Z,7.22
2023-01-09T19:29:28.959Z,6.25
2023-01-09T19:32:02.651Z,6.18
2023-01-09T19:34:35.921Z,6.10
2023-01-09T19:37:09.444Z,10.30
2023-01-09T19:39:42.405Z,7.38
2023-01-09T19:42:15.951Z,7.10
2023-01-09T19:44:42.557Z,6.85
2023-01-09T19:47:10.925Z,7.93
2023-01-09T19:49:44.914Z,6.38
2023-01-09T19:52:18.959Z,6.32
2023-01-09T19:54:46.603Z,8.95
2023-01-09T19:57:13.223Z,5.82
2023-01-09T19:59:46.895Z,7.30
2023-01-09T20:04:48.519Z,7.40
2023-01-09T20:07:15.275Z,4.13
2023-01-09T20:09:47.899Z,7.68
2023-01-09T20:12:20.885Z,7.38
2023-01-09T20:14:47.576Z,7.53
2023-01-09T20:17:21.070Z,4.78
2023-01-09T20:19:47.949Z,6.53
2023-01-09T20:22:20.893Z,6.90
2023-01-09T20:24:47.517Z,6.78
2023-01-09T20:27:21.009Z,4.75
2023-01-09T20:29:55.111Z,3.65
2023-01-09T20:32:36.879Z,7.45
2023-01-09T20:35:03.800Z,6.32
2023-01-09T20:37:37.954Z,6.63
2023-01-09T20:40:05.037Z,5.32
2023-01-09T20:42:31.637Z,5.75
2023-01-09T20:45:05.078Z,5.10
2023-01-09T20:47:31.738Z,9.60
2023-01-09T20:50:04.905Z,6.40
2023-01-09T20:52:31.524Z,7.13
2023-01-09T20:55:04.977Z,7.95
2023-01-09T20:57:31.641Z,6.93
2023-01-09T21:00:04.935Z,6.72
2023-01-09T21:02:31.544Z,7.57
2023-01-09T21:04:58.316Z,8.32
2023-01-09T21:07:31.977Z,6.75
2023-01-09T21:09:58.565Z,6.13
2023-01-09T21:12:27.429Z,5.07
2023-01-09T21:15:09.002Z,6.72
2023-01-09T21:17:43.921Z,7.68
2023-01-09T21:20:20.880Z,6.47
2023-01-09T21:22:47.880Z,6.38
2023-01-09T21:25:21.917Z,7.95
2023-01-09T21:27:51.528Z,11.57
2023-01-09T21:30:25.016Z,5.50
2023-01-09T21:33:04.885Z,5.65
2023-01-09T21:35:37.896Z,4.32
2023-01-09T21:38:10.928Z,4.00
2023-01-09T21:40:43.997Z,4.32
2023-01-09T21:43:40.213Z,6.25
2023-01-09T21:46:36.944Z,6.88
2023-01-09T21:49:11.889Z,7.85
2023-01-09T21:51:41.088Z,6.03
2023-01-09T21:54:15.893Z,4.93
2023-01-09T21:56:42.507Z,6.53
2023-01-09T21:59:16.952Z,4.97
2023-01-09T22:01:43.971Z,5.63
2023-01-09T22:04:14.398Z,4.13
2023-01-09T22:06:47.941Z,6.13
2023-01-09T22:09:14.776Z,4.43
2023-01-09T22:11:49.869Z,4.13
2023-01-09T22:14:19.098Z,5.93
2023-01-09T22:16:53.056Z,6.00
2023-01-09T22:19:28.054Z,3.45
2023-01-09T22:22:00.889Z,5.97
2023-01-09T22:24:27.562Z,6.13
2023-01-09T22:27:00.905Z,6.40
2023-01-09T22:29:27.556Z,3.25
2023-01-09T22:32:06.930Z,3.63
2023-01-09T22:34:33.677Z,3.17
2023-01-09T22:37:00.308Z,3.83
2023-01-09T22:39:33.887Z,4.88
2023-01-09T22:42:06.940Z,4.28
2023-01-09T22:44:33.547Z,3.90
2023-01-09T22:47:06.887Z,4.68
2023-01-09T22:49:51.346Z,7.60
2023-01-09T22:52:24.897Z,4.18
2023-01-09T22:54:51.563Z,4.80
2023-01-09T22:57:25.195Z,5.55
2023-01-09T22:59:51.797Z,4.32
2023-01-09T23:02:18.587Z,4.07
2023-01-09T23:04:51.855Z,4.85
2023-01-09T23:07:24.947Z,5.78
2023-01-09T23:09:51.548Z,3.13
2023-01-09T23:12:18.247Z,2.50
2023-01-09T23:14:51.956Z,4.22
2023-01-09T23:17:18.627Z,5.20
2023-01-09T23:19:51.891Z,3.33
2023-01-09T23:22:18.484Z,4.45
2023-01-09T23:24:51.968Z,8.48
2023-01-09T23:27:18.578Z,2.85
2023-01-09T23:29:58.916Z,4.75
2023-01-09T23:32:32.333Z,2.50
2023-01-09T23:35:05.906Z,7.53
2023-01-09T23:37:32.517Z,2.33
2023-01-09T23:40:05.941Z,5.13
2023-01-09T23:42:50.961Z,3.67
2023-01-09T23:45:23.896Z,5.35
2023-01-09T23:47:56.933Z,5.07
2023-01-09T23:50:29.900Z,3.67
2023-01-09T23:52:56.506Z,3.20
2023-01-09T23:55:29.921Z,3.20
2023-01-09T23:57:56.872Z,3.65
